Craig G — WDB5332 — position and weather

sailwx.info

Track history (hours):
 
Tides and Currents Weather Stations Pressure Air Temp Water Temp Dewpoint Dewpoint Depression Visibility Wind Speed Wind Dir Waves Ship Positions

Craig G

More information available from US FCC via Universal Licensing System and Coast Guard Vessel Documentation Center.

Last reported at 2014-Sep-17 15:33 UTC. Time now 2014-Sep-17 15:38 UTC.
Position N 33°00' W 117°47'.

Length 28 m; draft 2 m.

Type: Other ship. MMSI: 366908460.

Date/timePositionNaut miles runAvg speedWind from/ knotsBaromVisibWave heightAir tempDewpointWater temp
2014-Sep-17 15:33N 33°00' W 117°47'1 1.3
2014-Sep-17 14:33N 33°01' W 117°49'1 0.9
2014-Sep-17 13:33N 33°00' W 117°49'2 2.3
2014-Sep-17 12:33N 33°02' W 117°50'1 0.6
2014-Sep-17 11:33N 33°01' W 117°51'4 4.2
2014-Sep-17 10:33N 33°05' W 117°54'4 3.6
2014-Sep-17 09:33N 33°08' W 117°54'1 1.1
2014-Sep-17 08:33N 33°09' W 117°53'4 3.6
2014-Sep-17 07:33N 33°09' W 117°57'3 2.5
2014-Sep-17 06:33N 33°11' W 117°58'1616.0
2014-Sep-17 05:33N 33°26' W 118°03'1716.5
2014-Sep-17 04:33N 33°41' W 118°11'5 2.3
2014-Sep-17 02:24N 33°46' W 118°13'0 0.0
2014-Sep-17 01:33N 33°46' W 118°13'0 0.0
2014-Sep-17 00:34N 33°46' W 118°13'0 0.0
2014-Sep-16 23:33N 33°46' W 118°13'0 0.0
2014-Sep-16 22:30N 33°46' W 118°13'4 4.2
2014-Sep-16 21:33N 33°44' W 118°16'0 0.0
2014-Sep-16 20:33N 33°44' W 118°16'4 4.0
2014-Sep-16 19:33N 33°46' W 118°13'3 3.4
2014-Sep-16 18:33N 33°44' W 118°10'  
2014-Sep-13 13:32N 33°46' W 118°13'5 4.7
2014-Sep-13 12:33N 33°42' W 118°11'1716.5
2014-Sep-13 11:33N 33°26' W 118°06'1514.7
2014-Sep-13 10:33N 33°12' W 117°59'4 3.5
2014-Sep-13 09:33N 33°09' W 117°57'5 5.0
2014-Sep-13 08:33N 33°06' W 117°52'2 1.9
2014-Sep-13 07:33N 33°06' W 117°54'3 3.1
2014-Sep-13 06:33N 33°05' W 117°52'1 1.4
2014-Sep-13 05:33N 33°06' W 117°51'4 4.3
2014-Sep-13 04:33N 33°02' W 117°50'1 1.3
2014-Sep-13 03:33N 33°00' W 117°49'2 2.2
2014-Sep-13 02:33N 33°00' W 117°47'3 2.7
2014-Sep-13 01:33N 33°01' W 117°50'4 3.6
2014-Sep-13 00:33N 32°60' W 117°46'3 3.2
2014-Sep-12 23:33N 33°01' W 117°49'0 0.2
2014-Sep-12 22:33N 33°01' W 117°49'1 0.9
2014-Sep-12 21:33N 33°02' W 117°50'0 0.2
2014-Sep-12 20:33N 33°02' W 117°50'1 0.5
2014-Sep-12 19:33N 33°02' W 117°51'1 1.2
2014-Sep-12 18:33N 33°01' W 117°49'2 2.2
2014-Sep-12 17:33N 33°02' W 117°52'0 0.1
2014-Sep-12 16:33N 33°02' W 117°52'1 0.9
2014-Sep-12 15:33N 33°03' W 117°53'1 0.9
2014-Sep-12 14:33N 33°02' W 117°52'1 0.7
2014-Sep-12 13:33N 33°02' W 117°52'1 1.3
2014-Sep-12 12:33N 33°03' W 117°51'1 1.4
2014-Sep-12 11:33N 33°05' W 117°52'2 2.4
2014-Sep-12 10:33N 33°06' W 117°54'4 4.5
2014-Sep-12 09:33N 33°09' W 117°57'4 3.9
2014-Sep-12 08:34N 33°13' W 117°59'1716.7
2014-Sep-12 07:33N 33°29' W 118°03'1616.4
2014-Sep-12 06:33N 33°44' W 118°12'2 2.3
2014-Sep-12 05:33N 33°46' W 118°13'  
2014-Sep-08 23:20N 33°46' W 118°13'2 2.4
2014-Sep-08 22:25N 33°44' W 118°13'2 1.2
2014-Sep-08 21:04N 33°46' W 118°13'1 0.1
2014-Sep-08 15:33N 33°46' W 118°13'0 0.1
2014-Sep-08 14:21N 33°46' W 118°13'  
Track history (hours):
 
Tides and Currents Weather Stations Pressure Air Temp Water Temp Dewpoint Dewpoint Depression Visibility Wind Speed Wind Dir Waves Ship Positions

Craig G

More information available from US FCC via Universal Licensing System and Coast Guard Vessel Documentation Center.

Last reported at 2014-Sep-17 15:33 UTC. Time now 2014-Sep-17 15:38 UTC.
Position N 33°00' W 117°47'.

Length 28 m; draft 2 m.

Type: Other ship. MMSI: 366908460.

Date/timePositionNaut miles runAvg speedWind from/ knotsBaromVisibWave heightAir tempDewpointWater temp
2014-Sep-17 15:33N 33°00' W 117°47'1 1.3
2014-Sep-17 14:33N 33°01' W 117°49'1 0.9
2014-Sep-17 13:33N 33°00' W 117°49'2 2.3
2014-Sep-17 12:33N 33°02' W 117°50'1 0.6
2014-Sep-17 11:33N 33°01' W 117°51'4 4.2
2014-Sep-17 10:33N 33°05' W 117°54'4 3.6
2014-Sep-17 09:33N 33°08' W 117°54'1 1.1
2014-Sep-17 08:33N 33°09' W 117°53'4 3.6
2014-Sep-17 07:33N 33°09' W 117°57'3 2.5
2014-Sep-17 06:33N 33°11' W 117°58'1616.0
2014-Sep-17 05:33N 33°26' W 118°03'1716.5
2014-Sep-17 04:33N 33°41' W 118°11'5 2.3
2014-Sep-17 02:24N 33°46' W 118°13'0 0.0
2014-Sep-17 01:33N 33°46' W 118°13'0 0.0
2014-Sep-17 00:34N 33°46' W 118°13'0 0.0
2014-Sep-16 23:33N 33°46' W 118°13'0 0.0
2014-Sep-16 22:30N 33°46' W 118°13'4 4.2
2014-Sep-16 21:33N 33°44' W 118°16'0 0.0
2014-Sep-16 20:33N 33°44' W 118°16'4 4.0
2014-Sep-16 19:33N 33°46' W 118°13'3 3.4
2014-Sep-16 18:33N 33°44' W 118°10'  
2014-Sep-13 13:32N 33°46' W 118°13'5 4.7
2014-Sep-13 12:33N 33°42' W 118°11'1716.5
2014-Sep-13 11:33N 33°26' W 118°06'1514.7
2014-Sep-13 10:33N 33°12' W 117°59'4 3.5
2014-Sep-13 09:33N 33°09' W 117°57'5 5.0
2014-Sep-13 08:33N 33°06' W 117°52'2 1.9
2014-Sep-13 07:33N 33°06' W 117°54'3 3.1
2014-Sep-13 06:33N 33°05' W 117°52'1 1.4
2014-Sep-13 05:33N 33°06' W 117°51'4 4.3
2014-Sep-13 04:33N 33°02' W 117°50'1 1.3
2014-Sep-13 03:33N 33°00' W 117°49'2 2.2
2014-Sep-13 02:33N 33°00' W 117°47'3 2.7
2014-Sep-13 01:33N 33°01' W 117°50'4 3.6
2014-Sep-13 00:33N 32°60' W 117°46'3 3.2
2014-Sep-12 23:33N 33°01' W 117°49'0 0.2
2014-Sep-12 22:33N 33°01' W 117°49'1 0.9
2014-Sep-12 21:33N 33°02' W 117°50'0 0.2
2014-Sep-12 20:33N 33°02' W 117°50'1 0.5
2014-Sep-12 19:33N 33°02' W 117°51'1 1.2
2014-Sep-12 18:33N 33°01' W 117°49'2 2.2
2014-Sep-12 17:33N 33°02' W 117°52'0 0.1
2014-Sep-12 16:33N 33°02' W 117°52'1 0.9
2014-Sep-12 15:33N 33°03' W 117°53'1 0.9
2014-Sep-12 14:33N 33°02' W 117°52'1 0.7
2014-Sep-12 13:33N 33°02' W 117°52'1 1.3
2014-Sep-12 12:33N 33°03' W 117°51'1 1.4
2014-Sep-12 11:33N 33°05' W 117°52'2 2.4
2014-Sep-12 10:33N 33°06' W 117°54'4 4.5
2014-Sep-12 09:33N 33°09' W 117°57'4 3.9
2014-Sep-12 08:34N 33°13' W 117°59'1716.7
2014-Sep-12 07:33N 33°29' W 118°03'1616.4
2014-Sep-12 06:33N 33°44' W 118°12'2 2.3
2014-Sep-12 05:33N 33°46' W 118°13'  
2014-Sep-08 23:20N 33°46' W 118°13'2 2.4
2014-Sep-08 22:25N 33°44' W 118°13'2 1.2
2014-Sep-08 21:04N 33°46' W 118°13'1 0.1
2014-Sep-08 15:33N 33°46' W 118°13'0 0.1
2014-Sep-08 14:21N 33°46' W 118°13'  

Dump ship's entire track history